createdAt,value
2022-11-08T00:06:52.181Z,4.54
2022-11-08T00:21:49.786Z,5.50
2022-11-08T00:36:41.443Z,4.83
2022-11-08T00:51:31.992Z,5.33
2022-11-08T01:06:22.861Z,5.37
2022-11-08T01:21:14.093Z,6.71
2022-11-08T01:36:06.531Z,5.49
2022-11-08T01:50:56.721Z,5.51
2022-11-08T02:05:49.209Z,4.23
2022-11-08T02:20:40.177Z,3.06
2022-11-08T02:35:31.522Z,2.69
2022-11-08T02:50:22.332Z,2.99
2022-11-08T03:05:13.337Z,3.20
2022-11-08T03:20:04.312Z,3.63
2022-11-08T03:34:55.912Z,3.60
2022-11-08T03:49:46.163Z,4.14
2022-11-08T04:04:36.894Z,4.04
2022-11-08T04:19:46.675Z,4.60
2022-11-08T04:34:42.622Z,3.08
2022-11-08T04:49:36.132Z,2.67
2022-11-08T05:04:26.269Z,3.40
2022-11-08T05:19:18.466Z,2.47
2022-11-08T05:34:10.037Z,2.13
2022-11-08T05:49:01.116Z,2.76
2022-11-08T06:03:52.746Z,2.62
2022-11-08T06:18:44.814Z,2.83
2022-11-08T06:33:36.183Z,2.72
2022-11-08T06:48:32.405Z,3.43
2022-11-08T07:03:18.208Z,4.40
2022-11-08T07:18:08.859Z,4.36
2022-11-08T07:33:00.641Z,4.47
2022-11-08T07:48:00.476Z,4.19
2022-11-08T08:02:57.441Z,5.09
2022-11-08T08:17:48.493Z,4.32
2022-11-08T08:32:41.840Z,4.77
2022-11-08T08:47:35.234Z,4.54
2022-11-08T09:02:26.772Z,3.28
2022-11-08T09:17:20.281Z,2.76
2022-11-08T09:32:11.822Z,2.97
2022-11-08T09:47:03.062Z,3.57
2022-11-08T10:01:55.209Z,3.38
2022-11-08T10:16:56.639Z,3.60
2022-11-08T10:31:53.335Z,3.10
2022-11-08T10:46:48.488Z,2.00
2022-11-08T11:01:44.787Z,2.07
2022-11-08T11:16:32.477Z,1.98
2022-11-08T11:31:27.783Z,1.69
2022-11-08T11:46:21.486Z,1.68
2022-11-08T12:01:25.349Z,1.79
2022-11-08T12:16:25.124Z,2.44
2022-11-08T12:31:25.951Z,1.82
2022-11-08T12:46:22.095Z,2.20
2022-11-08T13:01:13.381Z,1.67
2022-11-08T13:16:11.269Z,2.31
2022-11-08T13:31:28.047Z,2.07
2022-11-08T13:46:28.193Z,2.07
2022-11-08T14:01:23.820Z,2.07
2022-11-08T14:16:21.417Z,2.10
2022-11-08T14:31:28.052Z,1.70
2022-11-08T14:46:32.999Z,2.30
2022-11-08T15:01:28.112Z,2.20
2022-11-08T15:16:22.136Z,2.93
2022-11-08T15:31:12.791Z,2.87
2022-11-08T15:46:02.497Z,3.53
2022-11-08T16:00:53.570Z,4.99
2022-11-08T16:15:44.236Z,4.29
2022-11-08T16:30:35.595Z,6.79
2022-11-08T16:45:50.514Z,5.74
2022-11-08T17:00:20.053Z,6.28
2022-11-08T17:15:13.499Z,6.40
2022-11-08T17:30:22.547Z,7.93
2022-11-08T17:45:08.521Z,9.22
2022-11-08T18:00:00.516Z,9.09
2022-11-08T18:14:55.075Z,10.10
2022-11-08T18:44:54.571Z,10.17
2022-11-08T18:59:46.492Z,11.22
2022-11-08T19:14:38.674Z,10.32
2022-11-08T19:29:30.642Z,10.32
2022-11-08T19:44:27.897Z,10.19
2022-11-08T19:59:23.481Z,10.18
2022-11-08T20:14:15.875Z,9.37
2022-11-08T20:29:07.831Z,10.34
2022-11-08T20:58:52.864Z,10.44
2022-11-08T21:13:44.752Z,14.27
2022-11-08T21:28:36.411Z,11.19
2022-11-08T21:43:27.688Z,6.71
2022-11-08T21:58:20.234Z,5.76
2022-11-08T22:13:11.435Z,4.62
2022-11-08T22:28:02.732Z,5.03
2022-11-08T22:42:54.706Z,5.18
2022-11-08T22:57:46.351Z,5.31
2022-11-08T23:12:59.311Z,4.88
2022-11-08T23:28:14.540Z,6.19
2022-11-08T23:43:34.484Z,6.98
2022-11-08T23:58:31.385Z,6.07
